createdAt,value
2022-11-07T00:00:48.990Z,56.91
2022-11-07T00:01:45.617Z,54.99
2022-11-07T00:02:44.596Z,64.05
2022-11-07T00:03:44.553Z,60.44
2022-11-07T00:04:44.617Z,60.19
2022-11-07T00:05:44.555Z,56.37
2022-11-07T00:06:44.522Z,61.25
2022-11-07T00:07:44.506Z,61.30
2022-11-07T00:08:44.520Z,57.78
2022-11-07T00:09:44.495Z,55.67
2022-11-07T00:10:44.488Z,56.87
2022-11-07T00:11:44.512Z,61.19
2022-11-07T00:12:44.509Z,65.02
2022-11-07T00:13:44.456Z,61.57
2022-11-07T00:14:44.465Z,62.43
2022-11-07T00:15:44.440Z,59.03
2022-11-07T00:16:44.443Z,59.72
2022-11-07T00:17:44.475Z,58.44
2022-11-07T00:18:44.405Z,65.11
2022-11-07T00:19:44.414Z,57.32
2022-11-07T00:20:44.453Z,56.22
2022-11-07T00:21:44.375Z,63.16
2022-11-07T00:22:44.387Z,56.92
2022-11-07T00:23:44.363Z,59.67
2022-11-07T00:24:44.382Z,63.84
2022-11-07T00:25:44.369Z,56.18
2022-11-07T00:26:44.370Z,63.07
2022-11-07T00:27:44.377Z,52.54
2022-11-07T00:28:44.360Z,63.97
2022-11-07T00:29:44.314Z,60.06
2022-11-07T00:30:44.297Z,56.35
2022-11-07T00:31:44.311Z,56.90
2022-11-07T00:32:44.283Z,62.76
2022-11-07T00:33:44.282Z,64.18
2022-11-07T00:34:44.267Z,57.15
2022-11-07T00:35:44.254Z,60.97
2022-11-07T00:36:44.239Z,60.24
2022-11-07T00:37:44.262Z,63.07
2022-11-07T00:38:44.257Z,58.88
2022-11-07T00:39:44.229Z,64.89
2022-11-07T00:40:44.271Z,63.74
2022-11-07T00:41:44.224Z,63.06
2022-11-07T00:42:44.194Z,61.89
2022-11-07T00:43:44.178Z,62.14
2022-11-07T00:44:44.183Z,61.57
2022-11-07T00:45:44.190Z,60.57
2022-11-07T00:46:44.187Z,64.20
2022-11-07T00:47:44.148Z,59.93
2022-11-07T00:48:44.141Z,56.59
2022-11-07T00:49:44.140Z,66.25
2022-11-07T00:50:44.127Z,55.63
2022-11-07T00:51:44.160Z,61.65
2022-11-07T00:52:44.112Z,56.65
2022-11-07T00:53:44.143Z,57.71
2022-11-07T00:54:44.094Z,61.24
2022-11-07T00:55:44.089Z,59.23
2022-11-07T00:56:44.093Z,63.49
2022-11-07T00:57:44.076Z,59.91
2022-11-07T00:58:44.061Z,61.49
2022-11-07T00:59:44.071Z,57.75
2022-11-07T01:00:44.065Z,58.00
2022-11-07T01:01:44.184Z,62.88
2022-11-07T01:02:44.162Z,62.15
2022-11-07T01:03:44.008Z,56.54
2022-11-07T01:04:44.015Z,56.83
2022-11-07T01:05:44.012Z,62.46
2022-11-07T01:06:44.014Z,64.05
2022-11-07T01:07:43.980Z,61.54
2022-11-07T01:08:43.974Z,58.46
2022-11-07T01:09:43.960Z,63.31
2022-11-07T01:10:43.966Z,57.52
2022-11-07T01:11:43.959Z,54.51
2022-11-07T01:12:43.960Z,57.82
2022-11-07T01:13:44.011Z,63.83
2022-11-07T01:14:43.914Z,61.43
2022-11-07T01:15:43.911Z,63.37
2022-11-07T01:16:43.915Z,59.34
2022-11-07T01:17:43.893Z,54.61
2022-11-07T01:18:43.890Z,63.27
2022-11-07T01:19:43.905Z,64.85
2022-11-07T01:20:43.869Z,65.11
2022-11-07T01:21:43.851Z,62.80
2022-11-07T01:22:43.849Z,55.96
2022-11-07T01:23:43.839Z,59.20
2022-11-07T01:24:43.871Z,64.43
2022-11-07T01:25:43.826Z,62.94
2022-11-07T01:26:43.815Z,58.84
2022-11-07T01:27:43.802Z,57.28
2022-11-07T01:28:43.796Z,59.11
2022-11-07T01:29:43.785Z,59.33
2022-11-07T01:30:43.805Z,56.07
2022-11-07T01:31:43.785Z,60.66
2022-11-07T01:32:43.762Z,59.90
2022-11-07T01:33:43.759Z,63.05
2022-11-07T01:34:43.749Z,59.33
2022-11-07T01:35:43.737Z,58.85
2022-11-07T01:36:43.725Z,61.36
2022-11-07T01:37:43.755Z,57.41
2022-11-07T01:38:43.717Z,61.68
2022-11-07T01:39:43.746Z,64.24
2022-11-07T01:40:43.706Z,61.94
2022-11-07T01:41:43.678Z,59.11
2022-11-07T01:42:43.669Z,61.38
2022-11-07T01:43:43.682Z,63.02
2022-11-07T01:44:43.673Z,61.78
2022-11-07T01:45:43.642Z,59.40
2022-11-07T01:46:43.644Z,61.01
2022-11-07T01:47:43.627Z,59.77
2022-11-07T01:48:43.611Z,61.01
2022-11-07T01:49:43.641Z,53.01
2022-11-07T01:50:43.606Z,60.18
2022-11-07T01:51:43.597Z,64.38
2022-11-07T01:52:44.535Z,60.23
2022-11-07T01:53:43.584Z,59.86
2022-11-07T01:54:43.586Z,62.03
2022-11-07T01:55:43.581Z,60.44
2022-11-07T01:56:43.579Z,61.23
2022-11-07T01:57:43.561Z,62.73
2022-11-07T01:58:43.529Z,61.10
2022-11-07T01:59:43.542Z,60.97
2022-11-07T02:00:43.516Z,62.26
2022-11-07T02:01:43.593Z,60.82
2022-11-07T02:02:43.732Z,57.15
2022-11-07T02:03:43.481Z,60.62
2022-11-07T02:04:43.480Z,62.46
2022-11-07T02:05:43.462Z,63.17
2022-11-07T02:06:43.475Z,58.46
2022-11-07T02:07:43.462Z,62.38
2022-11-07T02:08:43.471Z,63.07
2022-11-07T02:09:43.440Z,62.11
2022-11-07T02:10:43.431Z,61.77
2022-11-07T02:11:43.457Z,60.57
2022-11-07T02:12:43.534Z,59.64
2022-11-07T02:13:43.434Z,61.85
2022-11-07T02:14:43.437Z,63.46
2022-11-07T02:15:43.396Z,61.63
2022-11-07T02:16:43.407Z,61.59
2022-11-07T02:17:43.372Z,58.58
2022-11-07T02:18:43.359Z,61.12
2022-11-07T02:19:43.385Z,58.12
2022-11-07T02:20:43.370Z,64.58
2022-11-07T02:21:43.337Z,60.96
2022-11-07T02:22:43.332Z,56.37
2022-11-07T02:23:43.313Z,63.44
2022-11-07T02:24:43.329Z,61.89
2022-11-07T02:25:43.318Z,61.19
2022-11-07T02:26:43.305Z,60.40
2022-11-07T02:27:43.288Z,58.81
2022-11-07T02:28:43.282Z,62.59
2022-11-07T02:29:43.284Z,61.30
2022-11-07T02:30:43.275Z,62.66
2022-11-07T02:31:43.285Z,63.60
2022-11-07T02:32:43.242Z,62.49
2022-11-07T02:33:43.250Z,62.68
2022-11-07T02:34:43.226Z,60.21
2022-11-07T02:35:43.218Z,62.75
2022-11-07T02:36:43.205Z,63.12
2022-11-07T02:37:43.222Z,62.05
2022-11-07T02:38:43.197Z,59.57
2022-11-07T02:39:43.187Z,62.07
2022-11-07T02:40:43.187Z,64.51
2022-11-07T02:41:43.239Z,65.15
2022-11-07T02:42:43.164Z,60.66
2022-11-07T02:43:43.145Z,59.93
2022-11-07T02:44:43.157Z,59.31
2022-11-07T02:45:43.143Z,63.43
2022-11-07T02:46:43.141Z,65.84
2022-11-07T02:47:43.153Z,64.87
2022-11-07T02:48:43.111Z,66.54
2022-11-07T02:49:43.105Z,63.13
2022-11-07T02:50:43.115Z,59.72
2022-11-07T02:51:43.085Z,66.28
2022-11-07T02:52:43.072Z,59.49
2022-11-07T02:53:43.124Z,64.09
2022-11-07T02:54:43.056Z,61.73
2022-11-07T02:55:43.066Z,62.07
2022-11-07T02:56:43.035Z,61.80
2022-11-07T02:57:43.026Z,60.30
2022-11-07T02:58:43.014Z,64.60
2022-11-07T02:59:43.006Z,64.91
2022-11-07T03:00:43.036Z,60.46
2022-11-07T03:01:43.118Z,62.95
2022-11-07T03:02:43.066Z,62.65
2022-11-07T03:03:42.982Z,60.58
2022-11-07T03:04:48.853Z,65.91
2022-11-07T03:05:43.980Z,61.15
2022-11-07T03:06:42.963Z,63.62
2022-11-07T03:07:42.943Z,65.44
2022-11-07T03:08:42.935Z,60.24
2022-11-07T03:09:42.914Z,63.08
2022-11-07T03:10:42.913Z,57.23
2022-11-07T03:11:42.985Z,65.57
2022-11-07T03:12:42.908Z,65.62
2022-11-07T03:13:42.890Z,59.68
2022-11-07T03:14:42.946Z,64.75
2022-11-07T03:15:42.883Z,60.84
2022-11-07T03:16:42.940Z,63.32
2022-11-07T03:17:42.867Z,61.00
2022-11-07T03:18:42.836Z,58.78
2022-11-07T03:19:42.843Z,64.61
2022-11-07T03:20:42.834Z,66.64
2022-11-07T03:21:42.814Z,64.89
2022-11-07T03:22:42.833Z,61.71
2022-11-07T03:23:42.794Z,66.50
2022-11-07T03:24:42.810Z,61.64
2022-11-07T03:25:42.796Z,62.16
2022-11-07T03:26:42.789Z,64.08
2022-11-07T03:27:42.775Z,64.83
2022-11-07T03:28:42.789Z,64.36
2022-11-07T03:29:42.753Z,64.25
2022-11-07T03:30:42.746Z,64.40
2022-11-07T03:31:42.783Z,64.09
2022-11-07T03:32:42.738Z,61.43
2022-11-07T03:33:42.717Z,64.55
2022-11-07T03:34:42.727Z,64.51
2022-11-07T03:35:42.710Z,65.21
2022-11-07T03:36:42.695Z,62.96
2022-11-07T03:37:42.683Z,64.82
2022-11-07T03:38:42.674Z,64.87
2022-11-07T03:39:42.659Z,61.30
2022-11-07T03:40:42.706Z,65.39
2022-11-07T03:41:42.649Z,64.06
2022-11-07T03:42:42.640Z,64.35
2022-11-07T03:43:42.637Z,63.39
2022-11-07T03:44:42.629Z,64.58
2022-11-07T03:45:42.616Z,64.17
2022-11-07T03:46:42.624Z,62.63
2022-11-07T03:47:42.685Z,64.66
2022-11-07T03:48:42.584Z,66.53
2022-11-07T03:49:42.581Z,64.28
2022-11-07T03:50:42.598Z,64.22
2022-11-07T03:51:42.561Z,60.37
2022-11-07T03:52:42.601Z,65.47
2022-11-07T03:53:42.541Z,62.31
2022-11-07T03:54:42.528Z,63.74
2022-11-07T03:55:42.522Z,58.79
2022-11-07T03:56:42.544Z,66.86
2022-11-07T03:57:42.591Z,62.57
2022-11-07T03:58:42.525Z,67.04
2022-11-07T03:59:42.499Z,66.75
2022-11-07T04:00:42.498Z,64.53
2022-11-07T04:01:42.588Z,59.68
2022-11-07T04:02:42.579Z,64.82
2022-11-07T04:03:42.458Z,66.06
2022-11-07T04:04:42.547Z,66.39
2022-11-07T04:05:42.456Z,64.85
2022-11-07T04:06:42.441Z,60.19
2022-11-07T04:07:42.421Z,63.86
2022-11-07T04:08:42.411Z,65.97
2022-11-07T04:09:42.403Z,65.77
2022-11-07T04:10:42.399Z,66.10
2022-11-07T04:11:42.406Z,65.07
2022-11-07T04:12:42.384Z,64.55
2022-11-07T04:13:42.375Z,65.60
2022-11-07T04:14:42.365Z,64.52
2022-11-07T04:15:42.417Z,64.32
2022-11-07T04:16:42.343Z,66.04
2022-11-07T04:17:42.403Z,63.76
2022-11-07T04:18:42.358Z,66.05
2022-11-07T04:19:42.322Z,66.34
2022-11-07T04:20:42.312Z,66.28
2022-11-07T04:21:42.297Z,65.16
2022-11-07T04:22:42.295Z,63.62
2022-11-07T04:23:42.308Z,66.89
2022-11-07T04:24:45.769Z,67.09
2022-11-07T04:25:42.277Z,66.64
2022-11-07T04:26:42.269Z,66.23
2022-11-07T04:27:42.251Z,66.06
2022-11-07T04:28:42.248Z,63.04
2022-11-07T04:29:42.249Z,65.09
2022-11-07T04:30:42.219Z,66.69
2022-11-07T04:31:42.226Z,64.96
2022-11-07T04:32:42.193Z,66.07
2022-11-07T04:33:42.192Z,67.00
2022-11-07T04:34:42.178Z,64.75
2022-11-07T04:35:42.198Z,65.97
2022-11-07T04:36:42.160Z,65.49
2022-11-07T04:37:42.172Z,64.12
2022-11-07T04:38:42.142Z,64.85
2022-11-07T04:39:42.132Z,65.30
2022-11-07T04:40:42.134Z,64.96
2022-11-07T04:41:42.148Z,66.05
2022-11-07T04:42:42.120Z,67.02
2022-11-07T04:43:42.112Z,66.37
2022-11-07T04:44:42.116Z,65.82
2022-11-07T04:45:42.086Z,66.59
2022-11-07T04:46:42.110Z,65.03
2022-11-07T04:47:42.075Z,64.72
2022-11-07T04:48:42.057Z,65.56
2022-11-07T04:49:42.051Z,66.20
2022-11-07T04:50:42.060Z,65.14
2022-11-07T04:51:42.033Z,62.01
2022-11-07T04:52:42.037Z,64.99
2022-11-07T04:53:42.027Z,64.55
2022-11-07T04:54:42.048Z,65.22
2022-11-07T04:55:42.027Z,65.47
2022-11-07T04:56:42.002Z,65.28
2022-11-07T04:57:41.985Z,66.14
2022-11-07T04:58:42.010Z,65.33
2022-11-07T04:59:41.980Z,62.91
2022-11-07T05:00:41.961Z,64.85
2022-11-07T05:01:42.036Z,64.19
2022-11-07T05:02:42.024Z,64.91
2022-11-07T05:03:42.398Z,65.89
2022-11-07T05:04:42.041Z,66.41
2022-11-07T05:05:41.912Z,64.50
2022-11-07T05:06:41.905Z,67.35
2022-11-07T05:07:41.935Z,64.10
2022-11-07T05:08:41.892Z,65.37
2022-11-07T05:09:41.915Z,64.18
2022-11-07T05:10:41.911Z,66.62
2022-11-07T05:11:41.873Z,65.90
2022-11-07T05:12:41.893Z,66.08
2022-11-07T05:13:41.864Z,68.09
2022-11-07T05:14:41.840Z,66.77
2022-11-07T05:15:41.837Z,64.90
2022-11-07T05:16:41.834Z,65.79
2022-11-07T05:17:41.841Z,65.87
2022-11-07T05:18:41.798Z,66.40
2022-11-07T05:19:41.789Z,66.57
2022-11-07T05:20:41.787Z,66.83
2022-11-07T05:21:41.840Z,66.71
2022-11-07T05:22:41.782Z,65.87
2022-11-07T05:23:41.766Z,64.37
2022-11-07T05:24:41.749Z,61.76
2022-11-07T05:25:41.735Z,62.67
2022-11-07T05:26:41.734Z,64.75
2022-11-07T05:27:41.720Z,65.70
2022-11-07T05:28:41.733Z,65.27
2022-11-07T05:29:41.701Z,63.93
2022-11-07T05:30:41.693Z,65.16
2022-11-07T05:31:41.693Z,66.60
2022-11-07T05:32:41.683Z,65.58
2022-11-07T05:33:41.669Z,65.52
2022-11-07T05:34:41.682Z,64.74
2022-11-07T05:35:41.660Z,64.84
2022-11-07T05:36:41.681Z,63.43
2022-11-07T05:37:41.642Z,65.38
2022-11-07T05:38:41.644Z,66.63
2022-11-07T05:39:41.611Z,66.86
2022-11-07T05:40:41.621Z,65.78
2022-11-07T05:41:41.597Z,65.91
2022-11-07T05:42:41.596Z,67.38
2022-11-07T05:43:41.658Z,64.84
2022-11-07T05:44:41.570Z,65.07
2022-11-07T05:45:41.562Z,65.30
2022-11-07T05:46:41.573Z,65.86
2022-11-07T05:47:41.571Z,67.33
2022-11-07T05:48:41.568Z,66.50
2022-11-07T05:49:41.561Z,66.28
2022-11-07T05:50:41.701Z,65.36
2022-11-07T05:51:41.533Z,65.83
2022-11-07T05:52:41.627Z,65.05
2022-11-07T05:53:41.500Z,65.04
2022-11-07T05:54:41.486Z,67.12
2022-11-07T05:55:41.474Z,66.45
2022-11-07T05:56:41.599Z,67.41
2022-11-07T05:57:41.489Z,67.05
2022-11-07T05:58:41.510Z,64.94
2022-11-07T05:59:41.441Z,66.30
2022-11-07T06:00:41.434Z,66.61
2022-11-07T06:01:41.585Z,67.71
2022-11-07T06:02:41.516Z,67.47
2022-11-07T06:03:41.425Z,67.68
2022-11-07T06:04:41.424Z,66.55
2022-11-07T06:05:41.396Z,66.55
2022-11-07T06:06:41.415Z,67.56
2022-11-07T06:07:41.408Z,68.11
2022-11-07T06:08:41.367Z,66.92
2022-11-07T06:09:41.387Z,63.24
2022-11-07T06:10:41.352Z,66.84
2022-11-07T06:11:41.331Z,68.26
2022-11-07T06:12:41.359Z,66.72
2022-11-07T06:13:41.314Z,65.69
2022-11-07T06:14:41.314Z,66.90
2022-11-07T06:15:41.304Z,66.04
2022-11-07T06:16:41.296Z,66.91
2022-11-07T06:17:41.284Z,67.85
2022-11-07T06:18:41.924Z,65.99
2022-11-07T06:19:41.302Z,68.20
2022-11-07T06:20:41.271Z,68.11
2022-11-07T06:21:41.252Z,64.95
2022-11-07T06:22:41.240Z,65.35
2022-11-07T06:23:41.255Z,64.26
2022-11-07T06:24:41.353Z,64.81
2022-11-07T06:25:41.212Z,65.80
2022-11-07T06:26:41.242Z,67.43
2022-11-07T06:27:41.206Z,66.29
2022-11-07T06:28:41.265Z,66.26
2022-11-07T06:29:41.196Z,64.41
2022-11-07T06:30:41.215Z,66.42
2022-11-07T06:31:41.305Z,67.23
2022-11-07T06:32:41.151Z,67.58
2022-11-07T06:33:41.147Z,67.81
2022-11-07T06:34:41.129Z,67.12
2022-11-07T06:35:41.124Z,66.78
2022-11-07T06:36:41.115Z,66.86
2022-11-07T06:37:41.137Z,66.27
2022-11-07T06:38:41.092Z,66.46
2022-11-07T06:39:41.130Z,67.02
2022-11-07T06:40:41.105Z,66.91
2022-11-07T06:41:41.082Z,68.06
2022-11-07T06:42:41.103Z,66.32
2022-11-07T06:43:41.089Z,67.23
2022-11-07T06:44:41.145Z,67.37
2022-11-07T06:45:41.042Z,68.82
2022-11-07T06:46:41.094Z,66.97
2022-11-07T06:47:41.056Z,66.81
2022-11-07T06:48:41.024Z,68.35
2022-11-07T06:49:41.037Z,65.22
2022-11-07T06:50:40.999Z,66.09
2022-11-07T06:51:44.048Z,67.86
2022-11-07T06:52:41.981Z,66.83
2022-11-07T06:53:41.005Z,66.14
2022-11-07T06:54:40.955Z,67.50
2022-11-07T06:55:40.979Z,67.05
2022-11-07T06:56:40.944Z,67.60
2022-11-07T06:57:40.935Z,65.57
2022-11-07T06:58:40.937Z,67.95
2022-11-07T06:59:40.923Z,68.39
2022-11-07T07:00:41.043Z,67.70
2022-11-07T07:01:41.104Z,67.16
2022-11-07T07:03:41.901Z,68.92
2022-11-07T07:04:40.883Z,68.58
2022-11-07T07:05:40.870Z,67.83
2022-11-07T07:06:40.871Z,64.94
2022-11-07T07:07:40.873Z,67.02
2022-11-07T07:08:40.863Z,68.00
2022-11-07T07:09:40.872Z,67.21
2022-11-07T07:10:40.835Z,66.00
2022-11-07T07:11:40.822Z,66.48
2022-11-07T07:12:40.808Z,65.09
2022-11-07T07:13:40.832Z,69.88
2022-11-07T07:14:40.812Z,62.33
2022-11-07T07:15:51.151Z,62.83
2022-11-07T07:16:41.871Z,61.58
2022-11-07T07:17:40.778Z,64.51
2022-11-07T07:18:40.810Z,63.10
2022-11-07T07:19:40.965Z,66.60
2022-11-07T07:20:40.747Z,65.47
2022-11-07T07:21:40.745Z,66.05
2022-11-07T07:22:40.738Z,64.78
2022-11-07T07:23:40.720Z,68.25
2022-11-07T07:24:40.712Z,66.09
2022-11-07T07:25:40.723Z,67.55
2022-11-07T07:26:40.695Z,66.28
2022-11-07T07:27:40.691Z,64.24
2022-11-07T07:28:40.690Z,64.44
2022-11-07T07:29:40.670Z,66.26
2022-11-07T07:30:40.668Z,66.60
2022-11-07T07:31:40.676Z,66.51
2022-11-07T07:32:40.771Z,66.95
2022-11-07T07:33:40.653Z,66.82
2022-11-07T07:34:40.641Z,66.15
2022-11-07T07:35:40.630Z,67.18
2022-11-07T07:36:40.621Z,64.15
2022-11-07T07:37:40.640Z,63.75
2022-11-07T07:38:40.603Z,64.76
2022-11-07T07:39:40.620Z,62.26
2022-11-07T07:40:40.577Z,64.94
2022-11-07T07:41:40.724Z,64.68
2022-11-07T07:42:40.598Z,63.35
2022-11-07T07:43:40.549Z,64.53
2022-11-07T07:44:40.550Z,64.21
2022-11-07T07:45:40.535Z,66.67
2022-11-07T07:46:40.592Z,65.86
2022-11-07T07:47:40.522Z,65.04
2022-11-07T07:48:40.601Z,64.83
2022-11-07T07:49:40.511Z,65.30
2022-11-07T07:50:40.525Z,64.61
2022-11-07T07:51:40.545Z,62.07
2022-11-07T07:52:40.478Z,64.53
2022-11-07T07:53:40.483Z,63.27
2022-11-07T07:54:40.458Z,63.79
2022-11-07T07:55:40.496Z,62.58
2022-11-07T07:56:40.446Z,63.06
2022-11-07T07:57:40.430Z,65.63
2022-11-07T07:58:40.424Z,65.63
2022-11-07T07:59:40.410Z,64.70
2022-11-07T08:00:40.441Z,65.54
2022-11-07T08:01:40.538Z,66.79
2022-11-07T08:02:40.447Z,66.26
2022-11-07T08:04:00.233Z,67.57
2022-11-07T08:04:41.497Z,65.18
2022-11-07T08:05:40.367Z,66.02
2022-11-07T08:06:40.365Z,66.35
2022-11-07T08:07:40.379Z,65.91
2022-11-07T08:08:40.345Z,68.89
2022-11-07T08:09:40.333Z,66.50
2022-11-07T08:10:44.346Z,66.14
2022-11-07T08:11:40.309Z,64.49
2022-11-07T08:12:40.308Z,65.80
2022-11-07T08:13:40.311Z,65.20
2022-11-07T08:14:40.288Z,67.02
2022-11-07T08:15:40.282Z,65.15
2022-11-07T08:16:40.267Z,66.87
2022-11-07T08:17:40.259Z,64.69
2022-11-07T08:18:40.265Z,65.33
2022-11-07T08:19:40.272Z,65.55
2022-11-07T08:20:40.328Z,65.82
2022-11-07T08:21:40.282Z,65.80
2022-11-07T08:22:40.228Z,66.12
2022-11-07T08:23:40.214Z,65.52
2022-11-07T08:24:40.206Z,64.29
2022-11-07T08:25:40.225Z,64.47
2022-11-07T08:26:40.198Z,67.01
2022-11-07T08:27:40.191Z,67.11
2022-11-07T08:28:40.191Z,65.96
2022-11-07T08:29:40.170Z,66.27
2022-11-07T08:30:40.171Z,65.76
2022-11-07T08:31:40.175Z,65.62
2022-11-07T08:32:40.158Z,65.72
2022-11-07T08:33:40.197Z,65.60
2022-11-07T08:34:40.143Z,65.56
2022-11-07T08:35:42.738Z,68.76
2022-11-07T08:36:40.101Z,66.27
2022-11-07T08:37:40.105Z,65.12
2022-11-07T08:38:40.100Z,65.05
2022-11-07T08:39:40.089Z,62.18
2022-11-07T08:40:40.085Z,64.23
2022-11-07T08:41:40.106Z,67.13
2022-11-07T08:42:40.075Z,65.66
2022-11-07T08:43:40.058Z,66.66
2022-11-07T08:44:40.078Z,65.50
2022-11-07T08:45:40.042Z,65.87
2022-11-07T08:46:40.046Z,65.11
2022-11-07T08:47:40.053Z,66.40
2022-11-07T08:48:40.023Z,66.93
2022-11-07T08:49:40.021Z,67.58
2022-11-07T08:50:40.007Z,67.74
2022-11-07T08:51:39.997Z,66.42
2022-11-07T08:52:39.998Z,65.22
2022-11-07T08:53:40.026Z,63.83
2022-11-07T08:54:40.048Z,63.71
2022-11-07T08:55:39.979Z,64.94
2022-11-07T08:56:39.979Z,62.43
2022-11-07T08:57:39.987Z,63.27
2022-11-07T08:58:39.944Z,65.85
2022-11-07T08:59:39.930Z,66.10
2022-11-07T09:00:39.997Z,65.18
2022-11-07T09:01:56.090Z,64.36
2022-11-07T09:03:18.431Z,67.04
2022-11-07T09:03:47.367Z,65.43
2022-11-07T09:04:41.017Z,65.15
2022-11-07T09:05:39.875Z,63.33
2022-11-07T09:06:39.876Z,63.76
2022-11-07T09:07:39.868Z,62.07
2022-11-07T09:08:39.884Z,64.20
2022-11-07T09:09:39.846Z,65.79
2022-11-07T09:10:39.832Z,64.79
2022-11-07T09:11:39.847Z,66.12
2022-11-07T09:12:39.833Z,66.03
2022-11-07T09:13:39.851Z,67.09
2022-11-07T09:14:39.816Z,66.92
2022-11-07T09:15:39.797Z,66.17
2022-11-07T09:16:39.817Z,67.31
2022-11-07T09:17:39.783Z,66.65
2022-11-07T09:18:39.776Z,65.54
2022-11-07T09:19:39.801Z,65.09
2022-11-07T09:20:39.797Z,65.93
2022-11-07T09:21:39.760Z,65.55
2022-11-07T09:22:39.727Z,66.05
2022-11-07T09:23:39.723Z,62.56
2022-11-07T09:24:39.737Z,66.21
2022-11-07T09:25:39.703Z,63.70
2022-11-07T09:26:39.729Z,64.79
2022-11-07T09:27:39.689Z,66.19
2022-11-07T09:28:39.694Z,65.74
2022-11-07T09:29:39.680Z,64.24
2022-11-07T09:30:39.692Z,63.98
2022-11-07T09:31:39.720Z,66.07
2022-11-07T09:32:45.109Z,64.58
2022-11-07T09:33:40.649Z,66.85
2022-11-07T09:34:39.648Z,63.73
2022-11-07T09:35:39.618Z,66.03
2022-11-07T09:36:39.626Z,64.76
2022-11-07T09:37:39.650Z,67.04
2022-11-07T09:38:39.685Z,66.76
2022-11-07T09:39:39.595Z,62.39
2022-11-07T09:40:39.698Z,64.21
2022-11-07T09:41:39.581Z,66.36
2022-11-07T09:42:39.570Z,64.84
2022-11-07T09:43:39.614Z,63.91
2022-11-07T09:44:39.578Z,64.27
2022-11-07T09:45:39.534Z,64.76
2022-11-07T09:46:39.540Z,65.45
2022-11-07T09:47:39.518Z,68.18
2022-11-07T09:48:39.559Z,67.16
2022-11-07T09:49:39.518Z,66.91
2022-11-07T09:50:39.506Z,64.93
2022-11-07T09:51:39.509Z,64.82
2022-11-07T09:52:39.519Z,66.89
2022-11-07T09:53:39.478Z,66.44
2022-11-07T09:54:39.598Z,66.30
2022-11-07T09:55:39.479Z,66.26
2022-11-07T09:56:39.506Z,65.54
2022-11-07T09:57:39.455Z,66.84
2022-11-07T09:58:39.439Z,67.17
2022-11-07T09:59:39.432Z,67.68
2022-11-07T10:00:39.475Z,68.08
2022-11-07T10:01:39.556Z,66.24
2022-11-07T10:02:39.438Z,67.84
2022-11-07T10:03:43.174Z,66.13
2022-11-07T10:04:40.398Z,66.78
2022-11-07T10:05:39.395Z,67.16
2022-11-07T10:06:39.399Z,67.72
2022-11-07T10:07:39.366Z,66.35
2022-11-07T10:08:39.376Z,68.59
2022-11-07T10:09:39.362Z,67.14
2022-11-07T10:10:39.350Z,64.96
2022-11-07T10:11:39.361Z,67.88
2022-11-07T10:12:44.297Z,66.62
2022-11-07T10:13:40.329Z,65.73
2022-11-07T10:14:39.316Z,65.11
2022-11-07T10:15:39.331Z,66.63
2022-11-07T10:16:39.317Z,66.91
2022-11-07T10:17:39.294Z,63.38
2022-11-07T10:18:39.279Z,63.73
2022-11-07T10:19:39.274Z,66.64
2022-11-07T10:20:39.261Z,66.52
2022-11-07T10:21:39.635Z,66.82
2022-11-07T10:22:39.275Z,65.74
2022-11-07T10:23:39.252Z,66.81
2022-11-07T10:24:39.240Z,67.44
2022-11-07T10:25:39.222Z,67.84
2022-11-07T10:26:39.216Z,66.89
2022-11-07T10:27:39.199Z,64.04
2022-11-07T10:28:39.255Z,67.84
2022-11-07T10:29:44.222Z,67.09
2022-11-07T10:30:40.193Z,65.91
2022-11-07T10:31:39.177Z,66.48
2022-11-07T10:32:39.178Z,67.02
2022-11-07T10:33:39.161Z,68.20
2022-11-07T10:34:39.185Z,66.74
2022-11-07T10:35:39.148Z,64.76
2022-11-07T10:36:39.138Z,67.50
2022-11-07T10:37:39.123Z,66.94
2022-11-07T10:38:39.118Z,65.17
2022-11-07T10:39:39.108Z,68.31
2022-11-07T10:40:39.125Z,67.35
2022-11-07T10:41:39.084Z,66.32
2022-11-07T10:42:39.105Z,66.91
2022-11-07T10:43:39.076Z,66.37
2022-11-07T10:44:39.062Z,67.48
2022-11-07T10:45:39.056Z,67.48
2022-11-07T10:46:39.069Z,67.44
2022-11-07T10:47:39.031Z,67.20
2022-11-07T10:48:39.787Z,65.77
2022-11-07T10:49:39.945Z,66.34
2022-11-07T10:50:44.314Z,65.22
2022-11-07T10:51:45.343Z,66.08
2022-11-07T10:52:42.096Z,64.78
2022-11-07T10:53:38.991Z,67.54
2022-11-07T10:54:39.161Z,67.13
2022-11-07T10:55:38.985Z,65.79
2022-11-07T10:56:38.962Z,66.70
2022-11-07T10:57:38.957Z,65.91
2022-11-07T10:58:38.981Z,65.75
2022-11-07T10:59:38.937Z,67.36
2022-11-07T11:00:38.965Z,66.12
2022-11-07T11:01:39.087Z,66.09
2022-11-07T11:02:38.913Z,67.83
2022-11-07T11:03:45.775Z,66.92
2022-11-07T11:04:39.923Z,66.03
2022-11-07T11:05:38.880Z,64.85
2022-11-07T11:06:38.884Z,67.70
2022-11-07T11:07:38.883Z,66.49
2022-11-07T11:08:38.867Z,65.41
2022-11-07T11:09:38.858Z,63.94
2022-11-07T11:10:38.864Z,67.13
2022-11-07T11:11:38.845Z,67.58
2022-11-07T11:12:38.831Z,65.53
2022-11-07T11:13:38.810Z,67.20
2022-11-07T11:14:38.833Z,66.47
2022-11-07T11:15:38.850Z,66.23
2022-11-07T11:16:38.968Z,65.53
2022-11-07T11:17:38.783Z,64.64
2022-11-07T11:18:38.774Z,63.45
2022-11-07T11:19:38.764Z,65.22
2022-11-07T11:20:38.774Z,66.51
2022-11-07T11:21:38.782Z,67.12
2022-11-07T11:22:38.753Z,66.15
2022-11-07T11:23:38.745Z,65.79
2022-11-07T11:24:38.751Z,66.18
2022-11-07T11:25:38.727Z,65.41
2022-11-07T11:26:38.700Z,66.30
2022-11-07T11:27:38.727Z,66.01
2022-11-07T11:28:38.826Z,67.20
2022-11-07T11:29:39.762Z,64.74
2022-11-07T11:30:38.672Z,66.20
2022-11-07T11:31:38.672Z,66.35
2022-11-07T11:32:38.667Z,66.58
2022-11-07T11:33:38.696Z,65.57
2022-11-07T11:34:38.645Z,66.59
2022-11-07T11:35:41.912Z,66.82
2022-11-07T11:36:38.629Z,67.87
2022-11-07T11:37:38.639Z,66.86
2022-11-07T11:38:38.616Z,69.30
2022-11-07T11:39:38.609Z,68.66
2022-11-07T11:40:38.628Z,65.52
2022-11-07T11:41:38.597Z,67.30
2022-11-07T11:42:38.607Z,65.87
2022-11-07T11:43:38.593Z,65.92
2022-11-07T11:44:38.557Z,67.88
2022-11-07T11:45:38.557Z,68.27
2022-11-07T11:46:38.618Z,67.01
2022-11-07T11:47:38.540Z,66.33
2022-11-07T11:48:38.546Z,66.14
2022-11-07T11:49:38.526Z,65.85
2022-11-07T11:50:38.616Z,67.05
2022-11-07T11:51:38.503Z,67.08
2022-11-07T11:52:38.504Z,66.79
2022-11-07T11:53:38.493Z,67.10
2022-11-07T11:54:38.516Z,65.47
2022-11-07T11:55:38.481Z,65.22
2022-11-07T11:56:38.468Z,67.66
2022-11-07T11:57:38.459Z,67.85
2022-11-07T11:58:38.443Z,68.45
2022-11-07T11:59:38.439Z,66.85
2022-11-07T12:00:38.450Z,65.62
2022-11-07T12:01:38.416Z,67.09
2022-11-07T12:02:38.502Z,66.77
2022-11-07T12:03:38.398Z,64.37
2022-11-07T12:04:39.423Z,67.48
2022-11-07T12:05:38.414Z,66.31
2022-11-07T12:06:39.157Z,67.16
2022-11-07T12:07:38.470Z,67.01
2022-11-07T12:08:38.388Z,64.07
2022-11-07T12:09:38.359Z,69.19
2022-11-07T12:10:38.368Z,64.55
2022-11-07T12:11:38.351Z,64.10
2022-11-07T12:12:38.362Z,65.16
2022-11-07T12:13:38.339Z,65.76
2022-11-07T12:14:38.340Z,63.49
2022-11-07T12:15:38.301Z,66.95
2022-11-07T12:16:38.301Z,62.45
2022-11-07T12:17:38.285Z,67.19
2022-11-07T12:18:38.359Z,64.63
2022-11-07T12:19:38.301Z,66.91
2022-11-07T12:20:38.280Z,65.90
2022-11-07T12:21:38.264Z,67.48
2022-11-07T12:22:38.278Z,67.39
2022-11-07T12:23:38.252Z,65.15
2022-11-07T12:24:38.236Z,65.43
2022-11-07T12:25:38.232Z,66.48
2022-11-07T12:26:38.227Z,63.88
2022-11-07T12:27:38.222Z,66.90
2022-11-07T12:28:38.235Z,68.39
2022-11-07T12:29:38.227Z,65.66
2022-11-07T12:30:38.184Z,66.28
2022-11-07T12:31:38.177Z,66.92
2022-11-07T12:32:38.171Z,66.58
2022-11-07T12:33:38.168Z,66.29
2022-11-07T12:34:38.146Z,64.12
2022-11-07T12:35:38.230Z,63.71
2022-11-07T12:36:38.134Z,66.45
2022-11-07T12:37:38.157Z,64.56
2022-11-07T12:38:38.124Z,65.76
2022-11-07T12:39:38.116Z,66.42
2022-11-07T12:40:38.114Z,67.35
2022-11-07T12:41:38.147Z,65.48
2022-11-07T12:42:38.098Z,64.87
2022-11-07T12:43:38.091Z,66.00
2022-11-07T12:44:38.074Z,66.65
2022-11-07T12:45:38.065Z,64.73
2022-11-07T12:46:38.087Z,65.03
2022-11-07T12:47:38.150Z,65.21
2022-11-07T12:48:38.064Z,67.11
2022-11-07T12:49:38.037Z,66.22
2022-11-07T12:50:38.028Z,65.49
2022-11-07T12:51:38.050Z,65.27
2022-11-07T12:52:38.025Z,63.44
2022-11-07T12:53:38.111Z,64.65